Time;durP1;ratioP1;P1;durP2;ratioP2;P2;SDS_P1;SDS_P2;PMS_P1;PMS_P2;Temp;Humidity;BMP_temperature;BMP_pressure;BME280_temperature;BME280_humidity;BME280_pressure;Samples;Min_cycle;Max_cycle;Signal;HPM_P1;HPM_P2
2022/11/18 06:00:27;;;;;;;0.80;0.40;;;10.50;97.20;;;;;;1687349;29;20188;-71
2022/11/18 06:01:21;;;;;;;1.15;0.40;;;10.50;97.20;;;;;;1687516;29;20240;-70
2022/11/18 06:02:16;;;;;;;0.75;0.40;;;10.50;97.20;;;;;;1687628;29;20197;-70
2022/11/18 06:03:20;;;;;;;0.70;0.40;;;10.50;97.20;;;;;;1687503;29;20220;-70
2022/11/18 06:04:16;;;;;;;0.60;0.40;;;10.50;97.20;;;;;;1687687;29;20208;-70
2022/11/18 06:05:08;;;;;;;1.85;0.60;;;10.50;97.20;;;;;;1687664;29;20219;-70
2022/11/18 06:06:03;;;;;;;0.70;0.40;;;10.50;97.20;;;;;;1687994;29;20580;-71
2022/11/18 06:06:59;;;;;;;0.70;0.50;;;10.40;97.20;;;;;;1693044;29;20200;-70
2022/11/18 06:07:50;;;;;;;0.70;0.50;;;10.40;97.20;;;;;;1693959;29;20240;-70
2022/11/18 06:08:47;;;;;;;1.88;0.50;;;10.40;97.20;;;;;;1699509;29;20206;-69
2022/11/18 06:09:41;;;;;;;1.00;0.60;;;10.40;97.20;;;;;;1700686;29;20607;-69
2022/11/18 06:10:35;;;;;;;1.10;0.50;;;10.40;97.20;;;;;;1700239;29;20243;-69
2022/11/18 06:11:28;;;;;;;0.80;0.50;;;10.30;97.20;;;;;;1700508;29;20195;-69
2022/11/18 06:12:22;;;;;;;1.73;0.60;;;10.30;97.20;;;;;;1700230;29;20211;-69
2022/11/18 06:13:19;;;;;;;0.90;0.63;;;10.20;97.20;;;;;;1700435;29;20263;-71
2022/11/18 06:14:14;;;;;;;0.70;0.60;;;10.20;97.20;;;;;;1700301;29;20211;-70
2022/11/18 06:15:09;;;;;;;1.50;0.50;;;10.20;97.20;;;;;;1700125;29;20856;-70
2022/11/18 06:16:02;;;;;;;1.17;0.50;;;10.20;97.20;;;;;;1700204;29;20214;-71
2022/11/18 06:16:58;;;;;;;2.00;0.60;;;10.20;97.20;;;;;;1700120;29;20211;-70
2022/11/18 06:17:51;;;;;;;1.77;0.52;;;10.20;97.20;;;;;;1699893;29;20234;-71
2022/11/18 06:18:43;;;;;;;0.70;0.50;;;10.20;97.20;;;;;;1700302;29;20258;-71
2022/11/18 06:19:34;;;;;;;1.30;0.50;;;10.20;97.20;;;;;;1700475;29;20203;-71
2022/11/18 06:20:27;;;;;;;0.90;0.60;;;10.20;97.20;;;;;;1700330;29;20198;-71
2022/11/18 06:21:17;;;;;;;0.70;0.40;;;10.20;97.20;;;;;;1700624;29;20207;-71
2022/11/18 06:22:09;;;;;;;1.00;0.50;;;10.20;97.20;;;;;;1699940;29;20199;-71
2022/11/18 06:23:00;;;;;;;1.83;0.60;;;10.20;97.20;;;;;;1700322;29;20207;-71
2022/11/18 06:23:52;;;;;;;1.30;0.50;;;10.20;97.20;;;;;;1699993;29;20254;-71
2022/11/18 06:24:43;;;;;;;0.85;0.60;;;10.20;97.20;;;;;;1700394;29;20211;-71
2022/11/18 06:25:38;;;;;;;2.70;0.80;;;10.20;97.20;;;;;;1700612;29;20223;-71
2022/11/18 06:26:29;;;;;;;1.10;0.50;;;10.20;97.20;;;;;;1700712;29;20218;-70
2022/11/18 06:27:21;;;;;;;0.90;0.60;;;10.20;97.20;;;;;;1700619;29;20199;-70
2022/11/18 06:28:13;;;;;;;2.33;1.92;;;10.20;97.20;;;;;;1700664;29;20210;-70
2022/11/18 06:29:06;;;;;;;2.20;2.00;;;10.20;97.20;;;;;;1700408;29;20203;-69
2022/11/18 06:29:57;;;;;;;1.30;1.20;;;10.20;97.20;;;;;;1700660;29;20210;-70
2022/11/18 06:30:49;;;;;;;3.70;1.60;;;10.20;97.20;;;;;;1704964;29;20236;-70
2022/11/18 06:31:41;;;;;;;1.83;1.60;;;10.20;97.20;;;;;;1707131;29;20203;-71
2022/11/18 06:32:33;;;;;;;1.17;1.08;;;10.20;97.20;;;;;;1706926;29;20202;-70
2022/11/18 06:33:23;;;;;;;4.03;1.33;;;10.20;97.20;;;;;;1707206;29;20217;-71
2022/11/18 06:34:15;;;;;;;0.90;0.80;;;10.10;97.20;;;;;;1707216;29;20206;-71
2022/11/18 06:35:07;;;;;;;2.00;0.80;;;10.10;97.20;;;;;;1707293;29;20585;-70
2022/11/18 06:35:59;;;;;;;1.25;0.95;;;10.10;97.20;;;;;;1700066;29;20239;-70
2022/11/18 06:36:49;;;;;;;1.05;0.60;;;10.10;97.20;;;;;;1703536;29;20570;-70
2022/11/18 06:37:41;;;;;;;1.90;0.80;;;10.10;97.20;;;;;;1703918;29;20221;-70
2022/11/18 06:38:32;;;;;;;1.38;0.60;;;10.10;97.20;;;;;;1700334;29;20581;-70
2022/11/18 06:39:24;;;;;;;2.47;0.70;;;10.10;97.20;;;;;;1700550;29;20191;-70
2022/11/18 06:40:15;;;;;;;1.80;0.85;;;10.10;97.20;;;;;;1700012;29;20212;-69
2022/11/18 06:41:07;;;;;;;1.08;0.90;;;10.10;97.20;;;;;;1700625;29;20237;-70
2022/11/18 06:41:58;;;;;;;1.23;0.88;;;10.10;97.20;;;;;;1700525;29;20207;-70
2022/11/18 06:43:59;;;;;;;1.95;1.13;;;10.10;97.20;;;;;;1700669;29;20253;-69
2022/11/18 06:44:50;;;;;;;1.50;1.40;;;10.10;97.20;;;;;;1700728;29;20594;-69
2022/11/18 06:46:54;;;;;;;1.20;1.10;;;10.10;97.20;;;;;;1700608;29;20592;-69
2022/11/18 06:46:56;;;;;;;1.30;1.08;;;10.10;97.20;;;;;;1704214;29;20560;-69
2022/11/18 06:47:48;;;;;;;1.20;1.08;;;10.00;97.20;;;;;;1707162;29;20207;-69
2022/11/18 06:48:38;;;;;;;1.75;1.65;;;10.00;97.20;;;;;;1707143;29;20225;-69
2022/11/18 06:49:30;;;;;;;1.20;1.10;;;10.00;97.20;;;;;;1707205;29;20191;-69
2022/11/18 06:50:21;;;;;;;1.08;0.98;;;10.10;97.20;;;;;;1706786;28;20206;-69
2022/11/18 06:51:13;;;;;;;1.20;0.90;;;10.00;97.20;;;;;;1707258;29;20208;-69
2022/11/18 06:52:04;;;;;;;1.20;0.90;;;10.00;97.20;;;;;;1707108;29;20210;-69
2022/11/18 06:52:56;;;;;;;1.10;1.00;;;10.00;97.20;;;;;;1707131;29;20198;-70
2022/11/18 06:53:47;;;;;;;1.00;0.90;;;10.00;97.20;;;;;;1707074;29;20246;-69
2022/11/18 06:54:38;;;;;;;1.17;1.07;;;10.00;97.20;;;;;;1707188;29;20218;-70
2022/11/18 06:55:29;;;;;;;1.10;1.00;;;10.00;97.20;;;;;;1707147;29;20466;-70
2022/11/18 06:56:22;;;;;;;1.00;0.90;;;10.00;97.20;;;;;;1707198;29;20322;-69
2022/11/18 06:57:13;;;;;;;1.00;0.90;;;10.00;97.20;;;;;;1706841;29;20203;-69
2022/11/18 06:58:04;;;;;;;1.07;0.97;;;10.00;97.20;;;;;;1707119;29;20217;-69
2022/11/18 06:58:57;;;;;;;1.00;0.90;;;10.00;97.20;;;;;;1707106;29;20741;-70
2022/11/18 06:59:49;;;;;;;1.10;1.00;;;10.00;97.20;;;;;;1707146;29;20206;-69
2022/11/18 07:00:39;;;;;;;2.20;1.10;;;10.00;97.20;;;;;;1706794;28;20284;-69
2022/11/18 07:01:33;;;;;;;1.00;0.90;;;10.00;97.20;;;;;;1706795;29;20199;-69
2022/11/18 07:02:26;;;;;;;1.30;0.95;;;10.00;97.20;;;;;;1706465;29;20206;-69
2022/11/18 07:03:17;;;;;;;0.90;0.70;;;10.00;97.20;;;;;;1706887;29;20238;-69
2022/11/18 07:04:08;;;;;;;3.28;0.90;;;10.00;97.20;;;;;;1707203;29;20214;-69
2022/11/18 07:05:00;;;;;;;1.00;0.85;;;10.00;97.20;;;;;;1707112;29;20717;-69
2022/11/18 07:05:51;;;;;;;1.00;0.80;;;10.00;97.20;;;;;;1707125;29;20206;-69
2022/11/18 07:06:42;;;;;;;1.00;0.90;;;10.00;97.20;;;;;;1706441;29;20195;-69
2022/11/18 07:07:34;;;;;;;1.70;0.80;;;10.00;97.20;;;;;;1707164;29;20577;-69
2022/11/18 07:08:26;;;;;;;1.00;0.90;;;10.00;97.20;;;;;;1706963;29;20554;-69
2022/11/18 07:09:16;;;;;;;0.70;0.70;;;10.00;97.20;;;;;;1707126;29;20217;-69
2022/11/18 07:10:09;;;;;;;0.80;0.80;;;10.00;97.20;;;;;;1706832;29;20911;-69
2022/11/18 07:11:00;;;;;;;1.17;0.70;;;10.00;97.20;;;;;;1707118;28;20462;-69
2022/11/18 07:11:51;;;;;;;7.53;0.90;;;10.00;97.20;;;;;;1707020;29;20202;-68
2022/11/18 07:12:42;;;;;;;1.00;0.90;;;10.00;97.20;;;;;;1707116;29;20213;-68
2022/11/18 07:13:34;;;;;;;0.93;0.83;;;10.00;97.20;;;;;;1707117;29;20213;-68
2022/11/18 07:14:25;;;;;;;2.45;1.10;;;10.10;97.20;;;;;;1707099;28;20211;-68
2022/11/18 07:15:17;;;;;;;3.27;1.27;;;10.00;97.20;;;;;;1708127;29;20202;-67
2022/11/18 07:16:09;;;;;;;1.63;1.23;;;10.00;97.20;;;;;;1708358;29;20948;-67
2022/11/18 07:17:01;;;;;;;1.38;1.27;;;10.00;97.20;;;;;;1707976;29;20593;-67
2022/11/18 07:17:53;;;;;;;1.40;1.10;;;10.00;97.20;;;;;;1708235;29;20210;-68
2022/11/18 07:18:48;;;;;;;1.30;0.95;;;10.00;97.20;;;;;;1708178;29;20646;-67
2022/11/18 07:19:39;;;;;;;1.30;1.20;;;10.00;97.20;;;;;;1708247;29;20210;-68
2022/11/18 07:20:30;;;;;;;1.20;0.80;;;10.00;97.20;;;;;;1707480;28;20206;-68
2022/11/18 07:21:23;;;;;;;1.23;0.82;;;10.00;97.20;;;;;;1707510;29;20218;-67
2022/11/18 07:22:14;;;;;;;1.25;0.95;;;10.00;97.20;;;;;;1707857;29;20198;-67
2022/11/18 07:23:05;;;;;;;1.10;1.00;;;10.00;97.20;;;;;;1708233;29;20214;-67
2022/11/18 07:23:57;;;;;;;1.07;0.97;;;10.00;97.20;;;;;;1708214;29;20214;-67
2022/11/18 07:24:47;;;;;;;1.95;1.10;;;10.00;97.20;;;;;;1707879;29;20206;-67
2022/11/18 07:25:39;;;;;;;1.10;0.97;;;10.10;97.20;;;;;;1707957;29;20205;-67
2022/11/18 07:26:30;;;;;;;2.35;1.25;;;10.10;97.20;;;;;;1707575;29;20218;-68
2022/11/18 07:27:21;;;;;;;1.13;0.90;;;10.10;97.20;;;;;;1707355;29;20197;-68
2022/11/18 07:28:12;;;;;;;1.00;0.90;;;10.10;97.20;;;;;;1707512;29;20213;-68
2022/11/18 07:29:04;;;;;;;1.53;0.70;;;10.10;97.20;;;;;;1708091;29;20213;-67
2022/11/18 07:29:55;;;;;;;1.25;0.90;;;10.10;97.20;;;;;;1708123;29;20228;-67
2022/11/18 07:30:46;;;;;;;1.10;0.90;;;10.10;97.20;;;;;;1707743;28;20236;-67
2022/11/18 07:31:38;;;;;;;1.23;0.90;;;10.10;97.20;;;;;;1708136;29;20210;-67
2022/11/18 07:32:31;;;;;;;0.85;0.80;;;10.10;97.20;;;;;;1708130;29;20203;-67
2022/11/18 07:33:24;;;;;;;0.80;0.70;;;10.10;97.20;;;;;;1708157;29;20643;-67
2022/11/18 07:34:15;;;;;;;0.70;0.50;;;10.10;97.20;;;;;;1708157;29;20217;-67
2022/11/18 07:35:07;;;;;;;0.70;0.60;;;10.10;97.20;;;;;;1708242;29;20209;-67
2022/11/18 07:36:01;;;;;;;1.80;0.70;;;10.10;97.20;;;;;;1708096;29;20207;-67
2022/11/18 07:36:53;;;;;;;0.80;0.80;;;10.10;97.20;;;;;;1707878;29;20253;-67
2022/11/18 07:37:44;;;;;;;1.17;0.70;;;10.10;97.20;;;;;;1708165;29;20229;-67
2022/11/18 07:38:36;;;;;;;1.23;0.63;;;10.10;97.20;;;;;;1708071;29;20248;-67
2022/11/18 07:39:26;;;;;;;0.80;0.60;;;10.10;97.20;;;;;;1708164;29;20206;-67
2022/11/18 07:40:18;;;;;;;0.90;0.60;;;10.10;97.20;;;;;;1707755;28;20294;-68
2022/11/18 07:41:11;;;;;;;2.75;0.70;;;10.00;97.20;;;;;;1708100;29;20202;-68
2022/11/18 07:42:02;;;;;;;1.00;0.60;;;10.00;97.20;;;;;;1708089;29;20199;-67
2022/11/18 07:42:53;;;;;;;1.13;0.70;;;10.00;97.20;;;;;;1708072;29;20624;-67
2022/11/18 07:43:46;;;;;;;0.80;0.60;;;10.00;97.20;;;;;;1708145;29;20608;-68
2022/11/18 07:44:36;;;;;;;0.70;0.50;;;10.00;97.20;;;;;;1708062;29;20566;-68
2022/11/18 07:45:28;;;;;;;1.00;0.70;;;10.00;97.20;;;;;;1707824;29;20213;-68
2022/11/18 07:46:21;;;;;;;0.80;0.70;;;10.00;97.20;;;;;;1708130;29;20209;-68
2022/11/18 07:47:12;;;;;;;0.80;0.70;;;10.00;97.20;;;;;;1708047;29;20207;-67
2022/11/18 07:48:04;;;;;;;1.10;0.80;;;10.00;97.20;;;;;;1708085;29;20210;-67
2022/11/18 07:48:59;;;;;;;0.80;0.80;;;10.00;97.20;;;;;;1708083;29;20691;-67
2022/11/18 07:49:49;;;;;;;0.80;0.60;;;10.10;97.20;;;;;;1708125;29;20206;-68
2022/11/18 07:50:41;;;;;;;0.80;0.70;;;10.10;97.20;;;;;;1707742;28;20214;-68
2022/11/18 07:51:38;;;;;;;0.70;0.50;;;10.10;97.20;;;;;;1707871;29;20206;-68
2022/11/18 07:52:28;;;;;;;0.70;0.50;;;10.10;97.20;;;;;;1708054;29;20206;-67
2022/11/18 07:53:20;;;;;;;0.90;0.67;;;10.10;97.20;;;;;;1707974;29;20202;-67
2022/11/18 07:54:13;;;;;;;0.90;0.50;;;10.10;97.20;;;;;;1708005;29;20218;-67
2022/11/18 07:55:06;;;;;;;0.70;0.57;;;10.10;97.20;;;;;;1707820;29;20257;-67
2022/11/18 07:55:56;;;;;;;0.80;0.70;;;10.10;97.20;;;;;;1694842;29;20203;-67
2022/11/18 07:56:48;;;;;;;3.97;0.50;;;10.10;97.20;;;;;;1694819;29;20255;-68
2022/11/18 07:57:39;;;;;;;0.80;0.50;;;10.10;97.20;;;;;;1694856;29;20211;-68
2022/11/18 07:58:30;;;;;;;0.80;0.50;;;10.00;97.20;;;;;;1694770;29;20211;-68
2022/11/18 07:59:21;;;;;;;0.90;0.50;;;10.10;97.20;;;;;;1694832;29;20560;-68
2022/11/18 08:00:14;;;;;;;0.87;0.80;;;10.00;97.20;;;;;;1694545;29;20225;-68
2022/11/18 08:01:09;;;;;;;0.80;0.60;;;10.00;97.20;;;;;;1694870;29;20231;-68
2022/11/18 08:02:01;;;;;;;0.70;0.60;;;10.00;97.20;;;;;;1694766;29;20263;-68
2022/11/18 08:02:51;;;;;;;1.20;0.60;;;10.00;97.20;;;;;;1694835;29;20208;-68
2022/11/18 08:03:44;;;;;;;0.70;0.57;;;10.00;97.20;;;;;;1694862;29;20225;-67
2022/11/18 08:04:37;;;;;;;1.10;0.50;;;10.00;97.20;;;;;;1694759;29;20212;-67
2022/11/18 08:05:29;;;;;;;0.90;0.60;;;10.00;97.20;;;;;;1701034;29;20226;-67
2022/11/18 08:06:20;;;;;;;0.77;0.52;;;10.00;97.20;;;;;;1707927;29;20203;-67
2022/11/18 08:07:11;;;;;;;1.38;0.50;;;10.00;97.20;;;;;;1707977;29;20719;-67
2022/11/18 08:08:02;;;;;;;0.73;0.50;;;10.00;97.20;;;;;;1707996;29;20213;-67
2022/11/18 08:08:54;;;;;;;1.23;0.50;;;10.00;97.20;;;;;;1707349;29;20652;-68
2022/11/18 08:09:45;;;;;;;0.77;0.50;;;10.00;97.20;;;;;;1708005;29;20447;-67
2022/11/18 08:10:37;;;;;;;0.80;0.50;;;9.90;97.20;;;;;;1707618;28;20232;-68
2022/11/18 08:11:28;;;;;;;0.70;0.45;;;9.90;97.20;;;;;;1707872;29;20214;-67
2022/11/18 08:12:19;;;;;;;2.17;0.47;;;9.90;97.20;;;;;;1708076;29;20203;-67
2022/11/18 08:13:10;;;;;;;1.90;0.50;;;9.90;97.20;;;;;;1707862;29;20450;-68
2022/11/18 08:14:02;;;;;;;1.33;0.60;;;9.80;97.20;;;;;;1707932;29;20208;-68
2022/11/18 08:14:53;;;;;;;0.80;0.50;;;9.90;97.20;;;;;;1707903;29;20206;-68
2022/11/18 08:15:44;;;;;;;0.70;0.50;;;9.80;97.20;;;;;;1707813;29;20195;-68
2022/11/18 08:16:35;;;;;;;0.90;0.60;;;9.90;97.20;;;;;;1707854;29;20207;-67
2022/11/18 08:17:27;;;;;;;1.10;0.70;;;9.90;97.20;;;;;;1707897;29;20207;-67
2022/11/18 08:18:18;;;;;;;0.70;0.50;;;9.90;97.20;;;;;;1707880;29;20211;-67
2022/11/18 08:19:09;;;;;;;1.63;0.40;;;9.90;97.20;;;;;;1707519;29;20234;-68
2022/11/18 08:20:01;;;;;;;0.70;0.50;;;9.90;97.20;;;;;;1707806;29;20221;-67
2022/11/18 08:20:53;;;;;;;0.70;0.45;;;9.90;97.20;;;;;;1707806;28;20226;-67
2022/11/18 08:21:44;;;;;;;0.70;0.50;;;9.90;97.20;;;;;;1707795;29;20711;-68
2022/11/18 08:22:36;;;;;;;0.70;0.50;;;10.00;97.20;;;;;;1707922;29;20578;-67
2022/11/18 08:23:26;;;;;;;0.82;0.55;;;10.00;97.20;;;;;;1707865;29;20569;-67
2022/11/18 08:24:18;;;;;;;0.70;0.50;;;10.00;97.20;;;;;;1707806;29;20220;-68
2022/11/18 08:25:09;;;;;;;0.80;0.57;;;10.00;97.20;;;;;;1707791;29;20202;-68
2022/11/18 08:26:05;;;;;;;0.80;0.50;;;10.00;97.20;;;;;;1707617;28;20206;-67
2022/11/18 08:26:55;;;;;;;0.70;0.40;;;10.00;97.20;;;;;;1707812;29;20447;-67
2022/11/18 08:27:47;;;;;;;0.70;0.50;;;10.00;97.20;;;;;;1707637;29;20198;-67
2022/11/18 08:28:39;;;;;;;0.80;0.50;;;10.00;97.20;;;;;;1707831;29;20233;-67
2022/11/18 08:29:31;;;;;;;0.82;0.52;;;10.00;97.20;;;;;;1707915;29;20209;-67
2022/11/18 08:30:22;;;;;;;0.68;0.50;;;10.00;97.20;;;;;;1707315;28;20199;-67
2022/11/18 08:31:16;;;;;;;3.70;0.60;;;10.00;97.20;;;;;;1708083;29;20202;-67
2022/11/18 08:32:07;;;;;;;1.15;0.60;;;10.00;97.20;;;;;;1707730;29;20450;-67
2022/11/18 08:32:59;;;;;;;0.82;0.50;;;10.00;97.20;;;;;;1707788;29;20614;-67
2022/11/18 08:33:54;;;;;;;0.70;0.50;;;10.10;97.20;;;;;;1707952;29;20210;-67
2022/11/18 08:34:45;;;;;;;1.50;0.60;;;10.00;97.20;;;;;;1707741;29;20250;-67
2022/11/18 08:35:37;;;;;;;1.88;0.50;;;10.00;97.20;;;;;;1707448;29;20202;-67
2022/11/18 08:36:31;;;;;;;2.05;0.55;;;10.00;97.20;;;;;;1707636;29;20206;-67
2022/11/18 08:37:21;;;;;;;0.65;0.50;;;10.00;97.20;;;;;;1707720;29;20668;-68
2022/11/18 08:38:13;;;;;;;0.80;0.50;;;10.00;97.20;;;;;;1707835;29;20804;-67
2022/11/18 08:39:06;;;;;;;0.85;0.65;;;10.10;97.20;;;;;;1707403;29;20214;-67
2022/11/18 08:39:57;;;;;;;1.23;0.88;;;10.10;97.20;;;;;;1707752;29;20207;-67
2022/11/18 08:40:48;;;;;;;1.35;0.50;;;10.10;97.20;;;;;;1707413;28;20735;-67
2022/11/18 08:41:41;;;;;;;0.97;0.50;;;10.00;97.20;;;;;;1707687;29;20672;-68
2022/11/18 08:42:32;;;;;;;0.73;0.60;;;10.00;97.20;;;;;;1707842;29;20661;-67
2022/11/18 08:43:23;;;;;;;1.27;0.63;;;10.00;97.20;;;;;;1707755;29;20717;-67
2022/11/18 08:44:15;;;;;;;1.08;0.70;;;10.00;97.20;;;;;;1707730;29;20225;-67
2022/11/18 08:45:08;;;;;;;0.80;0.60;;;10.00;97.20;;;;;;1707742;29;20202;-67
2022/11/18 08:45:58;;;;;;;0.70;0.50;;;10.10;97.20;;;;;;1707636;29;20293;-67
2022/11/18 08:46:50;;;;;;;0.83;0.63;;;10.10;97.20;;;;;;1707684;29;20676;-67
2022/11/18 08:47:41;;;;;;;0.82;0.50;;;10.10;97.20;;;;;;1707712;29;20205;-67
2022/11/18 08:48:33;;;;;;;0.80;0.53;;;10.10;97.20;;;;;;1707803;29;20221;-67
2022/11/18 08:49:23;;;;;;;2.03;0.85;;;10.10;97.20;;;;;;1707669;29;20203;-67
2022/11/18 08:50:16;;;;;;;2.07;0.70;;;10.20;97.20;;;;;;1707288;28;20294;-68
2022/11/18 08:51:10;;;;;;;1.90;0.73;;;10.20;97.20;;;;;;1707659;29;20253;-67
2022/11/18 08:52:02;;;;;;;0.77;0.60;;;10.20;97.20;;;;;;1707562;29;20297;-67
2022/11/18 08:52:53;;;;;;;0.90;0.60;;;10.20;97.20;;;;;;1707685;29;20206;-67
2022/11/18 08:53:44;;;;;;;0.83;0.67;;;10.20;97.20;;;;;;1707682;29;20195;-67
2022/11/18 08:54:35;;;;;;;0.82;0.70;;;10.30;97.20;;;;;;1707688;29;20442;-68
2022/11/18 08:55:27;;;;;;;1.33;0.70;;;10.30;97.20;;;;;;1707756;29;20203;-67
2022/11/18 08:56:20;;;;;;;1.13;0.70;;;10.30;97.20;;;;;;1707637;29;20832;-67
2022/11/18 08:57:12;;;;;;;3.05;0.70;;;10.30;97.20;;;;;;1707650;29;20266;-67
2022/11/18 08:58:02;;;;;;;0.90;0.70;;;10.40;97.20;;;;;;1707588;29;20668;-68
2022/11/18 08:58:54;;;;;;;0.80;0.60;;;10.40;97.20;;;;;;1707342;29;20782;-68
2022/11/18 08:59:46;;;;;;;0.85;0.60;;;10.40;97.20;;;;;;1707639;29;20643;-67
2022/11/18 09:00:37;;;;;;;0.80;0.70;;;10.40;97.20;;;;;;1707315;28;20218;-68
2022/11/18 09:01:29;;;;;;;0.77;0.68;;;10.50;97.20;;;;;;1707663;29;20285;-68
2022/11/18 09:02:21;;;;;;;1.02;0.80;;;10.50;97.20;;;;;;1707566;29;20213;-68
2022/11/18 09:03:13;;;;;;;1.10;0.60;;;10.50;97.20;;;;;;1707646;29;20266;-67
2022/11/18 09:04:03;;;;;;;12.70;0.93;;;10.50;97.20;;;;;;1707561;29;20207;-67
2022/11/18 09:04:55;;;;;;;0.80;0.60;;;10.50;97.20;;;;;;1707600;29;20206;-68
2022/11/18 09:05:46;;;;;;;0.90;0.63;;;10.50;97.20;;;;;;1707575;29;20948;-68
2022/11/18 09:06:39;;;;;;;0.70;0.50;;;10.50;97.20;;;;;;1707540;29;20214;-68
2022/11/18 09:07:30;;;;;;;0.80;0.68;;;10.60;97.20;;;;;;1707658;29;20589;-68
2022/11/18 09:08:25;;;;;;;1.40;0.60;;;10.60;97.20;;;;;;1707578;29;20202;-68
2022/11/18 09:09:16;;;;;;;0.85;0.50;;;10.60;97.20;;;;;;1707304;29;21027;-68
2022/11/18 09:10:08;;;;;;;0.80;0.60;;;10.60;97.20;;;;;;1707379;29;20618;-68
2022/11/18 09:11:03;;;;;;;2.08;0.95;;;10.60;97.20;;;;;;1707389;28;20234;-68
2022/11/18 09:11:55;;;;;;;0.80;0.68;;;10.60;97.20;;;;;;1707569;29;20212;-68
2022/11/18 09:12:45;;;;;;;0.70;0.50;;;10.60;97.20;;;;;;1707575;29;20229;-68
2022/11/18 09:13:37;;;;;;;1.47;0.70;;;10.60;97.20;;;;;;1707483;29;20198;-68
2022/11/18 09:14:28;;;;;;;0.80;0.70;;;10.60;97.20;;;;;;1707615;29;20206;-68
2022/11/18 09:15:22;;;;;;;1.10;0.70;;;10.60;97.20;;;;;;1707504;29;20209;-68
2022/11/18 09:16:13;;;;;;;0.90;0.60;;;10.60;97.20;;;;;;1707518;29;20473;-68
2022/11/18 09:17:05;;;;;;;0.80;0.60;;;10.60;97.20;;;;;;1707538;29;20297;-68
2022/11/18 09:17:56;;;;;;;0.77;0.60;;;10.70;97.20;;;;;;1707156;29;20454;-68
2022/11/18 09:18:48;;;;;;;1.45;0.60;;;10.70;97.20;;;;;;1707230;29;20198;-68
2022/11/18 09:19:39;;;;;;;1.10;0.70;;;10.70;97.20;;;;;;1694483;29;20208;-70
2022/11/18 09:20:31;;;;;;;1.00;0.60;;;10.70;97.20;;;;;;1694063;29;20196;-70
2022/11/18 09:21:21;;;;;;;1.80;1.00;;;10.70;97.20;;;;;;1694371;29;20236;-70
2022/11/18 09:22:14;;;;;;;1.10;0.80;;;10.70;97.20;;;;;;1694321;29;20208;-70
2022/11/18 09:23:05;;;;;;;3.00;0.60;;;10.70;97.20;;;;;;1694377;29;20455;-68
2022/11/18 09:23:57;;;;;;;0.80;0.63;;;10.70;97.20;;;;;;1694362;29;20295;-68
2022/11/18 09:24:48;;;;;;;0.93;0.65;;;10.70;97.20;;;;;;1694362;29;20701;-69
2022/11/18 09:25:40;;;;;;;0.90;0.60;;;10.70;97.20;;;;;;1694332;29;20696;-68
2022/11/18 09:26:31;;;;;;;1.27;0.80;;;10.70;97.20;;;;;;1694340;29;20207;-68
2022/11/18 09:27:22;;;;;;;0.90;0.60;;;10.70;97.20;;;;;;1694319;29;20195;-68
2022/11/18 09:28:13;;;;;;;1.45;0.57;;;10.70;97.20;;;;;;1694316;29;20448;-69
2022/11/18 09:29:05;;;;;;;1.00;0.70;;;10.70;97.20;;;;;;1698944;29;20670;-70
2022/11/18 09:29:56;;;;;;;1.00;0.60;;;10.60;97.20;;;;;;1707466;29;20831;-70
2022/11/18 09:30:47;;;;;;;1.57;0.70;;;10.60;97.20;;;;;;1707047;28;20249;-68
2022/11/18 09:31:40;;;;;;;0.80;0.50;;;10.60;97.20;;;;;;1707350;29;20217;-68
2022/11/18 09:32:32;;;;;;;1.40;0.50;;;10.60;97.20;;;;;;1707387;29;20206;-68
2022/11/18 09:33:23;;;;;;;0.80;0.60;;;10.50;97.20;;;;;;1707505;29;20202;-68
2022/11/18 09:34:15;;;;;;;1.67;0.70;;;10.50;97.20;;;;;;1707442;29;20209;-68
2022/11/18 09:35:06;;;;;;;0.70;0.50;;;10.50;97.20;;;;;;1707400;29;20642;-68
2022/11/18 09:35:57;;;;;;;0.90;0.60;;;10.50;97.20;;;;;;1707452;29;20206;-68
2022/11/18 09:36:48;;;;;;;1.17;0.80;;;10.50;97.20;;;;;;1707461;29;20801;-68
2022/11/18 09:37:41;;;;;;;1.90;0.70;;;10.50;97.20;;;;;;1707070;28;20198;-68
2022/11/18 09:38:32;;;;;;;0.70;0.50;;;10.60;97.20;;;;;;1707381;29;20213;-68
2022/11/18 09:39:24;;;;;;;0.70;0.50;;;10.60;97.20;;;;;;1707072;29;20222;-68
2022/11/18 09:40:17;;;;;;;1.13;0.60;;;10.70;97.20;;;;;;1707022;28;20210;-68
2022/11/18 09:41:22;;;;;;;0.80;0.60;;;10.70;97.20;;;;;;1707381;29;20232;-68
2022/11/18 09:42:36;;;;;;;0.80;0.70;;;10.70;97.20;;;;;;1707479;29;20792;-68
2022/11/18 09:43:34;;;;;;;0.90;0.60;;;10.70;97.20;;;;;;1707456;29;20206;-68
2022/11/18 09:44:42;;;;;;;1.00;0.82;;;10.70;97.20;;;;;;1707407;29;20669;-68
2022/11/18 09:45:38;;;;;;;0.70;0.50;;;10.70;97.20;;;;;;1707451;29;20555;-68
2022/11/18 09:46:37;;;;;;;0.90;0.60;;;10.70;97.20;;;;;;1707407;29;20232;-68
2022/11/18 09:47:31;;;;;;;0.70;0.60;;;10.70;97.20;;;;;;1707442;29;20213;-68
2022/11/18 09:49:11;;;;;;;1.35;0.85;;;10.70;97.20;;;;;;1707492;29;20206;-68
2022/11/18 09:49:36;;;;;;;0.80;0.80;;;10.70;97.20;;;;;;1706918;29;20622;-68
2022/11/18 09:50:27;;;;;;;0.90;0.52;;;10.70;97.20;;;;;;1707067;28;20210;-68
2022/11/18 09:51:19;;;;;;;1.17;0.87;;;10.70;97.20;;;;;;1707098;29;20197;-68
2022/11/18 09:52:16;;;;;;;1.88;0.50;;;10.70;97.20;;;;;;1707260;29;20829;-68
2022/11/18 09:53:17;;;;;;;3.38;0.75;;;10.70;97.20;;;;;;1707374;29;20712;-68
2022/11/18 09:54:11;;;;;;;1.25;0.90;;;10.80;97.20;;;;;;1707350;29;20596;-68
2022/11/18 09:55:11;;;;;;;0.95;0.70;;;10.80;97.20;;;;;;1707350;29;20203;-68
2022/11/18 09:56:02;;;;;;;0.80;0.70;;;10.80;97.20;;;;;;1707361;29;20206;-68
2022/11/18 09:56:55;;;;;;;1.15;0.60;;;10.80;97.20;;;;;;1707253;29;20202;-68
2022/11/18 09:57:49;;;;;;;1.55;0.70;;;10.80;97.20;;;;;;1707380;29;20214;-68
2022/11/18 09:58:42;;;;;;;2.47;1.20;;;10.80;97.20;;;;;;1707277;29;20195;-68
2022/11/18 09:59:32;;;;;;;1.05;0.70;;;10.80;97.20;;;;;;1707005;29;20721;-68
2022/11/18 10:00:26;;;;;;;0.73;0.63;;;10.80;97.20;;;;;;1707059;28;20559;-68
2022/11/18 10:01:19;;;;;;;1.17;0.80;;;10.80;97.20;;;;;;1707280;29;20210;-68
2022/11/18 10:02:42;;;;;;;1.50;0.80;;;10.80;97.20;;;;;;1707193;29;20224;-68
2022/11/18 10:03:33;;;;;;;1.98;0.90;;;10.80;97.20;;;;;;1695526;29;20573;-68
2022/11/18 10:04:24;;;;;;;1.10;0.82;;;10.80;97.20;;;;;;1707333;29;20257;-68
2022/11/18 10:05:18;;;;;;;0.98;0.80;;;10.80;97.20;;;;;;1707382;29;20648;-68
2022/11/18 10:06:19;;;;;;;1.77;1.25;;;10.80;97.20;;;;;;1707322;29;20681;-68
2022/11/18 10:07:17;;;;;;;6.47;4.93;;;10.80;97.20;;;;;;1707207;29;20207;-68
2022/11/18 10:08:22;;;;;;;3.33;2.63;;;10.80;97.20;;;;;;1707303;29;20254;-68
2022/11/18 10:09:26;;;;;;;1.50;1.40;;;10.80;97.20;;;;;;1707064;29;20202;-68
2022/11/18 10:10:23;;;;;;;2.47;1.30;;;10.80;97.20;;;;;;1706960;28;20239;-69
2022/11/18 10:11:17;;;;;;;1.80;0.93;;;10.80;97.20;;;;;;1707120;29;20195;-68
2022/11/18 10:12:19;;;;;;;1.38;1.27;;;10.80;97.20;;;;;;1707327;29;20217;-68
2022/11/18 10:13:18;;;;;;;2.25;1.10;;;10.80;97.20;;;;;;1707270;29;20199;-68
2022/11/18 10:14:28;;;;;;;4.20;0.95;;;10.80;97.20;;;;;;1707257;29;20211;-68
2022/11/18 10:15:25;;;;;;;1.27;0.90;;;10.80;97.20;;;;;;1707294;29;20264;-68
2022/11/18 10:16:31;;;;;;;1.98;1.63;;;10.80;97.20;;;;;;1707287;29;20199;-68
2022/11/18 10:17:33;;;;;;;1.40;1.30;;;10.80;97.20;;;;;;1707261;29;20206;-69
2022/11/18 10:18:30;;;;;;;2.50;2.30;;;10.80;97.20;;;;;;1707391;29;20281;-68
2022/11/18 10:19:28;;;;;;;2.40;2.20;;;10.80;97.20;;;;;;1707004;29;20202;-68
2022/11/18 10:20:32;;;;;;;2.60;2.35;;;10.80;97.20;;;;;;1693816;29;20208;-68
2022/11/18 10:21:34;;;;;;;2.70;2.50;;;10.80;97.20;;;;;;1701009;29;20210;-68
2022/11/18 10:22:29;;;;;;;3.75;3.00;;;10.80;97.20;;;;;;1707280;29;20206;-68
2022/11/18 10:23:28;;;;;;;9.82;3.85;;;10.80;97.20;;;;;;1707107;29;20202;-68
2022/11/18 10:24:22;;;;;;;3.88;3.45;;;10.80;97.20;;;;;;1707278;29;20621;-68
2022/11/18 10:25:17;;;;;;;3.22;2.92;;;10.90;97.20;;;;;;1706996;29;20202;-68
2022/11/18 10:26:08;;;;;;;2.30;2.10;;;10.90;97.20;;;;;;1707282;29;20700;-68
2022/11/18 10:27:01;;;;;;;2.13;1.70;;;10.90;97.20;;;;;;1707201;29;20661;-68
2022/11/18 10:27:52;;;;;;;1.70;1.40;;;10.90;97.20;;;;;;1706881;29;20203;-68
2022/11/18 10:28:43;;;;;;;1.97;1.30;;;10.80;97.20;;;;;;1707264;29;20190;-68
2022/11/18 10:29:34;;;;;;;1.38;1.17;;;10.80;97.20;;;;;;1707217;29;20199;-68
2022/11/18 10:30:26;;;;;;;1.27;1.17;;;10.80;97.20;;;;;;1706811;28;20205;-68
2022/11/18 10:31:17;;;;;;;1.55;1.00;;;10.80;97.20;;;;;;1707310;29;20257;-68
2022/11/18 10:32:12;;;;;;;2.13;1.20;;;10.80;97.20;;;;;;1707211;29;20202;-68
2022/11/18 10:33:22;;;;;;;1.73;0.95;;;10.80;97.20;;;;;;1707281;29;20623;-68
2022/11/18 10:34:18;;;;;;;1.13;1.02;;;10.80;97.20;;;;;;1707193;29;20221;-68
2022/11/18 10:35:23;;;;;;;1.95;1.13;;;10.80;97.20;;;;;;1707293;29;20213;-68
2022/11/18 10:36:31;;;;;;;1.13;1.02;;;10.80;97.20;;;;;;1707240;29;20206;-69
2022/11/18 10:37:24;;;;;;;4.00;1.33;;;10.80;97.20;;;;;;1705530;29;20580;-68
2022/11/18 10:38:18;;;;;;;1.40;1.30;;;10.80;97.20;;;;;;1706837;29;20285;-68